< Typhoon 201113 2011 Season Typhoon 201115 >
Typhoon 201114 (KULAP)
General InformationTrack Information on Google MapsDetailed Wind InformationAccess Analytics MapList of All Images || NewsDisaster Info.WeblogTrackbackTyphoon FrontTwiphoonTyphoon Now!Typhoon ImaginationResourceGoogle EarthGE AnimationAtom FeedGeoJSON
Detalied Best Track (Time Zone = UTC)
Year Month Day Hour Lat. Long. Pressure (hPa) Wind (kt) Class Image Chart
2011 9 6 06 19.5 134.5 1004 0 2 Image Chart
2011 9 6 12 20.3 134.9 1004 0 2 Image Chart
2011 9 6 18 20.8 135.1 1004 0 2 Image Chart
2011 9 7 00 21.2 135.3 1002 35 3 Image Chart
2011 9 7 06 21.6 135.7 1000 35 3 Image Chart
2011 9 7 12 22.7 135.8 1000 35 3 Image Chart
2011 9 7 18 23.7 135.2 1000 35 3 Image Chart
2011 9 8 00 24.6 134.2 1000 35 3 Image Chart
2011 9 8 06 25.5 133.6 1000 35 3 Image Chart
2011 9 8 12 26.3 132.6 1002 35 3 Image Chart
2011 9 8 18 27.1 131.4 1004 35 3 Image Chart
2011 9 9 00 28.1 131.0 1008 0 2 Image Chart
2011 9 9 06 29.2 130.1 1008 0 2 Image Chart
2011 9 9 12 30.0 128.9 1010 0 2 Image Chart
2011 9 9 18 30.3 127.9 1010 0 2 Image Chart
2011 9 10 00 30.7 127.6 1012 0 2 Image Chart
2011 9 10 06 31.7 127.2 1012 0 2 Image Chart
2011 9 10 12 32.1 126.7 1012 0 2 Image Chart
2011 9 10 18 32.8 126.5 1012 0 2 Image Chart
2011 9 11 00 33.4 126.5 1014 0 2 Image Chart
Japan Meteorological Agency Best Track Data | Correction Date : 2011-10-28
< Typhoon 201113 2011 Season Typhoon 201115 >

Help